Time;durP1;ratioP1;P1;durP2;ratioP2;P2;SDS_P1;SDS_P2;PMS_P1;PMS_P2;Temp;Humidity;BMP_temperature;BMP_pressure;BME280_temperature;BME280_humidity;BME280_pressure;Samples;Min_cycle;Max_cycle;Signal;HPM_P1;HPM_P2
2022/04/19 00:00:18;;;;;;;7.32;4.93;;;;;;;-144.47;100.00;61586.06;6179978;23;20416;-74
2022/04/19 00:02:44;;;;;;;7.22;4.80;;;;;;;-144.47;100.00;61586.06;6182047;23;20024;-74
2022/04/19 00:05:10;;;;;;;7.07;5.00;;;;;;;-144.47;100.00;61586.06;6182114;23;20009;-75
2022/04/19 00:07:37;;;;;;;6.90;5.25;;;;;;;-144.47;100.00;61586.06;6181860;23;20017;-76
2022/04/19 00:10:05;;;;;;;5.43;3.92;;;;;;;-144.47;100.00;61586.06;6182209;23;20002;-73
2022/04/19 00:12:30;;;;;;;5.88;4.10;;;;;;;-144.47;100.00;61586.06;6155098;23;20012;-74
2022/04/19 00:14:56;;;;;;;5.20;4.53;;;;;;;-144.47;100.00;61586.06;6181604;23;20009;-75
2022/04/19 00:17:21;;;;;;;7.28;4.60;;;;;;;-144.47;100.00;61586.06;6181618;23;20009;-74
2022/04/19 00:19:47;;;;;;;5.18;4.20;;;;;;;-144.47;100.00;61586.06;6182108;23;20024;-74
2022/04/19 00:22:12;;;;;;;6.25;4.03;;;;;;;-144.47;100.00;61586.06;6181946;23;20352;-74
2022/04/19 00:24:41;;;;;;;4.90;4.35;;;;;;;-144.47;100.00;61586.06;6182042;23;20398;-74
2022/04/19 00:27:06;;;;;;;8.40;4.15;;;;;;;-144.47;100.00;61586.06;6182335;23;20009;-74
2022/04/19 00:29:32;;;;;;;6.18;4.18;;;;;;;-144.47;100.00;61586.06;6181154;23;20020;-74
2022/04/19 00:31:57;;;;;;;6.80;3.60;;;;;;;-144.47;100.00;61586.06;6181148;23;20001;-74
2022/04/19 00:34:23;;;;;;;5.43;3.97;;;;;;;-144.47;100.00;61586.06;6180652;23;20083;-75
2022/04/19 00:36:48;;;;;;;10.40;4.68;;;;;;;-144.47;100.00;61586.06;6181186;23;20008;-74
2022/04/19 00:39:14;;;;;;;5.10;3.95;;;;;;;-144.47;100.00;61586.06;6154019;23;20013;-74
2022/04/19 00:41:40;;;;;;;7.85;5.28;;;;;;;-144.47;100.00;61586.06;6181485;23;20101;-74
2022/04/19 00:44:05;;;;;;;4.40;4.00;;;;;;;-144.47;100.00;61586.06;6181009;23;20127;-75
2022/04/19 00:46:30;;;;;;;4.45;4.05;;;;;;;-144.47;100.00;61586.06;6153348;23;20009;-74
2022/04/19 00:48:57;;;;;;;6.72;4.15;;;;;;;-144.47;100.00;61586.06;6154294;23;20460;-74
2022/04/19 00:51:24;;;;;;;6.13;4.20;;;;;;;-144.47;100.00;61586.06;6153627;23;20004;-74
2022/04/19 00:53:50;;;;;;;11.40;4.20;;;;;;;-144.47;100.00;61586.06;6154121;23;20025;-74
2022/04/19 00:56:16;;;;;;;4.95;4.32;;;;;;;-144.47;100.00;61586.06;6154036;23;20052;-74
2022/04/19 00:58:42;;;;;;;7.35;5.07;;;;;;;-144.47;100.00;61586.06;6150946;23;20028;-73
2022/04/19 01:01:08;;;;;;;5.88;5.38;;;;;;;-144.47;100.00;61586.06;6150675;23;20049;-74
2022/04/19 01:03:33;;;;;;;5.97;4.72;;;;;;;-144.47;100.00;61586.06;6177536;23;20393;-74
2022/04/19 01:06:07;;;;;;;7.35;4.07;;;;;;;-144.47;100.00;61586.06;6154515;23;20096;-75
2022/04/19 01:08:33;;;;;;;7.88;4.68;;;;;;;-144.47;100.00;61586.06;6154154;23;20039;-75
2022/04/19 01:13:56;;;;;;;6.85;4.78;;;;;;;-144.47;100.00;61586.06;6179798;23;20013;-74
2022/04/19 01:16:24;;;;;;;6.57;4.18;;;;;;;-144.47;100.00;61586.06;6154683;23;20039;-75
2022/04/19 01:18:53;;;;;;;6.82;4.07;;;;;;;-144.47;100.00;61586.06;6155932;23;20080;-74
2022/04/19 01:21:19;;;;;;;5.18;4.13;;;;;;;-144.47;100.00;61586.06;6183392;23;20350;-73
2022/04/19 01:23:44;;;;;;;5.35;4.28;;;;;;;-144.47;100.00;61586.06;6157610;23;20005;-73
2022/04/19 01:26:10;;;;;;;6.57;4.50;;;;;;;-144.47;100.00;61586.06;6157367;23;20386;-76
2022/04/19 01:28:38;;;;;;;5.20;4.07;;;;;;;-144.47;100.00;61586.06;6157304;23;20035;-73
2022/04/19 01:31:05;;;;;;;6.82;3.80;;;;;;;-144.47;100.00;61586.06;6157154;23;20505;-76
2022/04/19 01:33:39;;;;;;;4.30;4.00;;;;;;;-144.47;100.00;61586.06;6157175;23;20088;-74
2022/04/19 01:36:09;;;;;;;4.88;4.20;;;;;;;-144.47;100.00;61586.06;6156824;23;20338;-73
2022/04/19 01:38:37;;;;;;;4.47;4.07;;;;;;;-144.47;100.00;61586.06;6181643;23;20016;-73
2022/04/19 01:41:03;;;;;;;6.47;4.95;;;;;;;-144.47;100.00;61586.06;6156956;23;20009;-73
2022/04/19 01:43:46;;;;;;;5.03;4.05;;;;;;;-144.47;100.00;61586.06;6155576;23;20020;-74
2022/04/19 01:46:16;;;;;;;9.07;4.53;;;;;;;-144.47;100.00;61586.06;6154980;23;20402;-76
2022/04/19 01:48:41;;;;;;;7.55;4.03;;;;;;;-144.47;100.00;61586.06;6155186;23;20103;-76
2022/04/19 01:51:08;;;;;;;5.72;4.15;;;;;;;-144.47;100.00;61586.06;6180313;23;20017;-74
2022/04/19 01:53:34;;;;;;;6.72;4.63;;;;;;;-144.47;100.00;61586.06;6154844;23;20029;-73
2022/04/19 01:55:59;;;;;;;4.97;4.47;;;;;;;-144.47;100.00;61586.06;6155593;23;20175;-74
2022/04/19 01:58:54;;;;;;;6.43;4.53;;;;;;;-144.47;100.00;61586.06;6129163;23;20013;-73
2022/04/19 02:01:25;;;;;;;5.72;4.30;;;;;;;-144.47;100.00;61586.06;6154985;23;20047;-74
2022/04/19 02:03:50;;;;;;;4.70;4.30;;;;;;;-144.47;100.00;61586.06;6155262;23;20009;-76
2022/04/19 02:06:20;;;;;;;4.65;4.25;;;;;;;-144.47;100.00;61586.06;6154509;23;20025;-74
2022/04/19 02:08:46;;;;;;;7.65;4.53;;;;;;;-144.47;100.00;61586.06;6155789;23;20035;-74
2022/04/19 02:11:16;;;;;;;5.65;4.68;;;;;;;-144.47;100.00;61586.06;6157129;23;20344;-74
2022/04/19 02:13:44;;;;;;;4.72;4.30;;;;;;;-144.47;100.00;61586.06;6156433;23;20020;-75
2022/04/19 02:16:10;;;;;;;6.15;4.80;;;;;;;-144.47;100.00;61586.06;6182177;23;20013;-73
2022/04/19 02:18:36;;;;;;;6.53;4.60;;;;;;;-144.47;100.00;61586.06;6155362;23;20117;-74
2022/04/19 02:21:02;;;;;;;6.15;4.53;;;;;;;-144.47;100.00;61586.06;6181829;23;20013;-74
2022/04/19 02:23:28;;;;;;;4.85;4.18;;;;;;;-144.47;100.00;61586.06;6155069;23;20012;-74
2022/04/19 02:25:54;;;;;;;7.65;4.63;;;;;;;-144.47;100.00;61586.06;6182337;23;20334;-74
2022/04/19 02:28:22;;;;;;;5.30;4.43;;;;;;;-144.47;100.00;61586.06;6155249;23;20009;-74
2022/04/19 02:30:59;;;;;;;9.25;4.90;;;;;;;-144.47;100.00;61586.06;6154921;23;20091;-74
2022/04/19 02:33:28;;;;;;;5.95;4.55;;;;;;;-144.47;100.00;61586.06;6155234;23;20013;-74
2022/04/19 02:35:55;;;;;;;5.78;4.50;;;;;;;-144.47;100.00;61586.06;6155100;23;20453;-74
2022/04/19 02:38:22;;;;;;;7.60;4.38;;;;;;;-144.47;100.00;61586.06;6155092;23;20369;-74
2022/04/19 02:40:48;;;;;;;5.40;4.70;;;;;;;-144.47;100.00;61586.06;6155379;23;20025;-75
2022/04/19 02:43:15;;;;;;;5.70;4.88;;;;;;;-144.47;100.00;61586.06;6155160;23;20351;-74
2022/04/19 02:45:42;;;;;;;6.75;4.65;;;;;;;-144.47;100.00;61586.06;6154519;23;20009;-74
2022/04/19 02:48:11;;;;;;;8.60;5.18;;;;;;;-144.47;100.00;61586.06;6155291;23;20162;-74
2022/04/19 02:50:45;;;;;;;4.88;4.47;;;;;;;-144.47;100.00;61586.06;6154926;23;20013;-74
2022/04/19 02:53:11;;;;;;;5.68;4.80;;;;;;;-144.47;100.00;61586.06;6181585;23;20023;-74
2022/04/19 02:55:38;;;;;;;6.22;5.13;;;;;;;-144.47;100.00;61586.06;6155406;23;20013;-74
2022/04/19 02:58:04;;;;;;;5.25;4.75;;;;;;;-144.47;100.00;61586.06;6181704;23;20059;-74
2022/04/19 03:00:30;;;;;;;7.47;4.85;;;;;;;-144.47;100.00;61586.06;6180864;23;20083;-73
2022/04/19 03:02:55;;;;;;;6.00;5.28;;;;;;;-144.47;100.00;61586.06;6181698;23;20017;-74
2022/04/19 03:05:22;;;;;;;6.20;4.97;;;;;;;-144.47;100.00;61586.06;6154483;23;20013;-74
2022/04/19 03:07:48;;;;;;;7.95;5.40;;;;;;;-144.47;100.00;61586.06;6181310;23;20038;-74
2022/04/19 03:10:15;;;;;;;6.25;5.05;;;;;;;-144.47;100.00;61586.06;6154170;23;20377;-74
2022/04/19 03:12:43;;;;;;;5.35;4.63;;;;;;;-144.47;100.00;61586.06;6155207;23;20504;-75
2022/04/19 03:15:15;;;;;;;5.50;4.40;;;;;;;-144.47;100.00;61586.06;6155646;23;20095;-75
2022/04/19 03:17:41;;;;;;;5.15;4.65;;;;;;;-144.47;100.00;61586.06;6156191;23;20465;-75
2022/04/19 03:20:09;;;;;;;7.35;5.53;;;;;;;-144.47;100.00;61586.06;6156358;23;20159;-73
2022/04/19 03:28:04;;;;;;;5.25;4.82;;;;;;;-144.47;100.00;61586.06;6185110;23;20020;-75
2022/04/19 03:30:30;;;;;;;6.45;5.53;;;;;;;-144.47;100.00;61586.06;6160508;23;20060;-74
2022/04/19 03:32:56;;;;;;;6.22;5.63;;;;;;;-144.47;100.00;61586.06;6159816;23;20087;-74
2022/04/19 03:35:22;;;;;;;6.75;5.05;;;;;;;-144.47;100.00;61586.06;6182329;23;20442;-74
2022/04/19 03:37:48;;;;;;;5.53;4.82;;;;;;;-144.47;100.00;61586.06;6155651;23;20012;-74
2022/04/19 03:40:14;;;;;;;7.68;5.40;;;;;;;-144.47;100.00;61586.06;6150073;23;20316;-74
2022/04/19 03:42:41;;;;;;;6.07;5.15;;;;;;;-144.47;100.00;61586.06;6150247;23;20022;-75
2022/04/19 03:45:10;;;;;;;8.98;5.13;;;;;;;-144.47;100.00;61586.06;6151399;23;20080;-74
2022/04/19 03:47:36;;;;;;;8.63;5.05;;;;;;;-144.47;100.00;61586.06;6149639;23;20052;-73
2022/04/19 03:50:02;;;;;;;9.52;5.40;;;;;;;-144.47;100.00;61586.06;6149878;23;20021;-73
2022/04/19 03:52:31;;;;;;;6.30;5.15;;;;;;;-144.47;100.00;61586.06;6149074;23;20014;-73
2022/04/19 03:54:57;;;;;;;6.68;5.35;;;;;;;-144.47;100.00;61586.06;6149498;23;20013;-73
2022/04/19 03:57:25;;;;;;;5.47;4.90;;;;;;;-144.47;100.00;61586.06;6149394;23;20300;-73
2022/04/19 03:59:52;;;;;;;7.57;4.88;;;;;;;-144.47;100.00;61586.06;6150062;23;20099;-74
2022/04/19 04:02:21;;;;;;;5.93;5.22;;;;;;;-144.47;100.00;61586.06;6125725;23;20140;-74
2022/04/19 04:04:47;;;;;;;7.68;4.95;;;;;;;-144.47;100.00;61586.06;6149772;23;20152;-74
2022/04/19 04:07:13;;;;;;;7.85;4.93;;;;;;;-144.47;100.00;61586.06;6150192;23;20025;-74
2022/04/19 04:09:40;;;;;;;5.70;5.22;;;;;;;-144.47;100.00;61586.06;6149178;23;20439;-75
2022/04/19 04:12:12;;;;;;;7.10;5.47;;;;;;;-144.47;100.00;61586.06;6151217;23;20311;-74
2022/04/19 04:14:40;;;;;;;8.80;5.38;;;;;;;-144.47;100.00;61586.06;6149283;23;20013;-74
2022/04/19 04:17:05;;;;;;;7.60;5.10;;;;;;;-144.47;100.00;61586.06;6174036;23;20013;-74
2022/04/19 04:19:31;;;;;;;7.30;4.95;;;;;;;-144.47;100.00;61586.06;6149422;23;20372;-74
2022/04/19 04:21:57;;;;;;;7.97;5.25;;;;;;;-144.47;100.00;61586.06;6151635;23;20056;-74
2022/04/19 04:24:23;;;;;;;5.47;4.97;;;;;;;-144.47;100.00;61586.06;6149292;23;20064;-74
2022/04/19 04:26:49;;;;;;;10.10;6.07;;;;;;;-144.47;100.00;61586.06;6150554;23;20269;-73
2022/04/19 04:29:18;;;;;;;6.35;5.00;;;;;;;-144.47;100.00;61586.06;6150299;23;20016;-74
2022/04/19 04:31:46;;;;;;;6.80;5.45;;;;;;;-144.47;100.00;61586.06;6149878;23;20005;-75
2022/04/19 04:34:16;;;;;;;9.82;6.00;;;;;;;-144.47;100.00;61586.06;6126091;23;20047;-74
2022/04/19 04:36:42;;;;;;;10.02;6.03;;;;;;;-144.47;100.00;61586.06;6150951;23;20018;-74
2022/04/19 04:39:10;;;;;;;6.93;5.68;;;;;;;-144.47;100.00;61586.06;6153210;23;20427;-75
2022/04/19 04:41:53;;;;;;;7.43;5.75;;;;;;;-144.47;100.00;61586.06;6155538;23;20017;-74
2022/04/19 04:44:19;;;;;;;5.65;5.15;;;;;;;-144.47;100.00;61586.06;6155203;23;20437;-74
2022/04/19 04:49:39;;;;;;;9.65;5.43;;;;;;;-144.47;100.00;61586.06;6180047;23;20009;-73
2022/04/19 04:52:11;;;;;;;9.77;5.43;;;;;;;-144.47;100.00;61586.06;6155753;23;20020;-73
2022/04/19 04:54:39;;;;;;;6.85;5.25;;;;;;;-144.47;100.00;61586.06;6156764;23;20021;-74
2022/04/19 04:57:05;;;;;;;10.30;6.18;;;;;;;-144.47;100.00;61586.06;6157148;23;20001;-74
2022/04/19 04:59:32;;;;;;;6.88;5.78;;;;;;;-144.47;100.00;61586.06;6156832;23;20005;-74
2022/04/19 05:01:58;;;;;;;6.55;5.70;;;;;;;-144.47;100.00;61586.06;6157099;23;20013;-74
2022/04/19 05:04:24;;;;;;;6.70;6.10;;;;;;;-144.47;100.00;61586.06;6156806;23;20063;-74
2022/04/19 05:06:50;;;;;;;14.77;6.10;;;;;;;-144.47;100.00;61586.06;6157474;23;20009;-74
2022/04/19 05:09:17;;;;;;;7.65;5.43;;;;;;;-144.47;100.00;61586.06;6156996;23;20009;-74
2022/04/19 05:11:46;;;;;;;6.32;4.88;;;;;;;-144.47;100.00;61586.06;6183271;23;20012;-77
2022/04/19 05:14:15;;;;;;;5.63;5.07;;;;;;;-144.47;100.00;61586.06;6157138;23;20017;-78
2022/04/19 05:16:42;;;;;;;10.10;5.50;;;;;;;-144.47;100.00;61586.06;6154322;23;20009;-76
2022/04/19 05:19:08;;;;;;;6.22;5.50;;;;;;;-144.47;100.00;61586.06;6154690;23;20009;-76
2022/04/19 05:21:39;;;;;;;6.70;5.70;;;;;;;-144.47;100.00;61586.06;6153800;23;20021;-76
2022/04/19 05:24:07;;;;;;;9.05;5.13;;;;;;;-144.47;100.00;61586.06;6153954;23;20435;-77
2022/04/19 05:26:33;;;;;;;9.32;5.70;;;;;;;-144.47;100.00;61586.06;6153861;23;20398;-77
2022/04/19 05:29:00;;;;;;;7.65;5.40;;;;;;;-144.47;100.00;61586.06;6157770;23;20100;-76
2022/04/19 05:31:25;;;;;;;8.50;5.53;;;;;;;-144.47;100.00;61586.06;6157732;23;20108;-77
2022/04/19 05:33:51;;;;;;;8.95;5.32;;;;;;;-144.47;100.00;61586.06;6160800;23;20025;-77
2022/04/19 05:36:19;;;;;;;7.47;5.93;;;;;;;-144.47;100.00;61586.06;6136402;23;20048;-79
2022/04/19 05:38:45;;;;;;;6.78;5.32;;;;;;;-144.47;100.00;61586.06;6168587;23;20140;-77
2022/04/19 05:41:11;;;;;;;7.25;5.82;;;;;;;-144.47;100.00;61586.06;6169281;23;20017;-78
2022/04/19 05:43:38;;;;;;;10.73;8.00;;;;;;;-144.47;100.00;61586.06;6157788;23;20071;-78
2022/04/19 05:46:04;;;;;;;13.10;6.03;;;;;;;-144.47;100.00;61586.06;6132978;23;20021;-78
2022/04/19 05:48:29;;;;;;;10.60;6.78;;;;;;;-144.47;100.00;61586.06;6157359;23;20020;-78
2022/04/19 05:50:55;;;;;;;23.33;11.52;;;;;;;-144.47;100.00;61586.06;6183817;23;20005;-76
2022/04/19 05:53:21;;;;;;;35.13;17.08;;;;;;;-144.47;100.00;61586.06;6156849;23;20673;-78
2022/04/19 05:55:47;;;;;;;26.05;13.68;;;;;;;-144.47;100.00;61586.06;6157337;23;20021;-77
2022/04/19 05:58:13;;;;;;;23.15;11.90;;;;;;;-144.47;100.00;61586.06;6156918;23;20009;-78
2022/04/19 06:00:39;;;;;;;24.35;14.18;;;;;;;-144.47;100.00;61586.06;6156802;23;20415;-76
2022/04/19 06:05:49;;;;;;;27.40;15.88;;;;;;;-144.47;100.00;61586.06;6155420;23;20099;-75
2022/04/19 06:08:16;;;;;;;23.38;15.70;;;;;;;-144.47;100.00;61586.06;6128572;23;20017;-76
2022/04/19 06:10:43;;;;;;;22.27;14.50;;;;;;;-144.47;100.00;61586.06;6180372;23;20291;-77
2022/04/19 06:13:09;;;;;;;26.55;15.63;;;;;;;-144.47;100.00;61586.06;6180235;23;20023;-75
2022/04/19 06:15:37;;;;;;;27.95;16.02;;;;;;;-144.47;100.00;61586.06;6153277;23;20071;-76
2022/04/19 06:18:04;;;;;;;25.05;15.55;;;;;;;-144.47;100.00;61586.06;6153239;23;20066;-82
2022/04/19 06:20:56;;;;;;;20.92;13.23;;;;;;;-144.47;100.00;61586.06;6176389;23;20009;-80
2022/04/19 06:23:23;;;;;;;19.45;14.02;;;;;;;-144.47;100.00;61586.06;6153812;23;20469;-80
2022/04/19 06:25:50;;;;;;;20.17;12.52;;;;;;;-144.47;100.00;61586.06;6154949;23;20074;-80
2022/04/19 06:28:17;;;;;;;14.23;11.20;;;;;;;-144.47;100.00;61586.06;6155355;23;20009;-81
2022/04/19 06:31:11;;;;;;;22.08;12.63;;;;;;;-144.47;100.00;61586.06;6178824;23;20438;-82
2022/04/19 06:33:38;;;;;;;17.88;11.38;;;;;;;-144.47;100.00;61586.06;6154486;23;20088;-82
2022/04/19 06:36:05;;;;;;;19.00;10.73;;;;;;;-144.47;100.00;61586.06;6153321;23;20116;-77
2022/04/19 06:38:33;;;;;;;14.05;9.63;;;;;;;-144.47;100.00;61586.06;6153047;23;20028;-80
2022/04/19 06:40:59;;;;;;;12.82;9.60;;;;;;;-144.47;100.00;61586.06;6148694;23;20447;-79
2022/04/19 06:43:25;;;;;;;15.05;10.40;;;;;;;-144.47;100.00;61586.06;6148240;23;20044;-82
2022/04/19 06:45:56;;;;;;;26.92;10.90;;;;;;;-144.47;100.00;61586.06;6148446;23;20017;-80
2022/04/19 06:48:24;;;;;;;14.80;10.18;;;;;;;-144.47;100.00;61586.06;6148429;23;20036;-79
2022/04/19 06:50:50;;;;;;;14.40;10.23;;;;;;;-144.47;100.00;61586.06;6150353;23;20017;-77
2022/04/19 06:53:17;;;;;;;15.80;10.55;;;;;;;-144.47;100.00;61586.06;6147922;23;20135;-81
2022/04/19 06:55:55;;;;;;;14.50;10.10;;;;;;;-144.47;100.00;61586.06;6148502;23;20013;-80
2022/04/19 06:58:21;;;;;;;13.85;10.30;;;;;;;-144.47;100.00;61586.06;6148501;23;20017;-81
2022/04/19 07:00:48;;;;;;;13.00;10.40;;;;;;;-144.47;100.00;61586.06;6148625;23;20115;-80
2022/04/19 07:03:14;;;;;;;16.52;11.52;;;;;;;-144.47;100.00;61586.06;6148587;23;20013;-80
2022/04/19 07:05:59;;;;;;;13.15;10.20;;;;;;;-144.47;100.00;61586.06;6150585;23;20024;-78
2022/04/19 07:08:26;;;;;;;13.18;9.65;;;;;;;-144.47;100.00;61586.06;6148685;23;20013;-80
2022/04/19 07:10:51;;;;;;;12.52;9.18;;;;;;;-144.47;100.00;61586.06;6148141;23;20021;-80
2022/04/19 07:13:40;;;;;;;12.00;9.00;;;;;;;-144.47;100.00;61586.06;6141415;23;20025;-77
2022/04/19 07:16:05;;;;;;;11.57;9.05;;;;;;;-144.47;100.00;61586.06;6151200;23;20060;-80
2022/04/19 07:18:31;;;;;;;15.35;9.43;;;;;;;-144.47;100.00;61586.06;6152281;23;20001;-81
2022/04/19 07:26:40;;;;;;;10.65;9.07;;;;;;;-144.47;100.00;61586.06;6152049;23;20068;-82
2022/04/19 07:29:10;;;;;;;10.35;8.82;;;;;;;-144.47;100.00;61586.06;6155011;23;20087;-81
2022/04/19 07:31:37;;;;;;;15.13;9.50;;;;;;;-144.47;100.00;61586.06;6152231;23;20083;-79
2022/04/19 07:34:08;;;;;;;9.48;8.15;;;;;;;-144.47;100.00;61586.06;6127755;23;20347;-79
2022/04/19 07:36:35;;;;;;;9.10;8.20;;;;;;;-144.47;100.00;61586.06;6151526;23;20320;-80
2022/04/19 07:39:04;;;;;;;10.38;8.73;;;;;;;-144.47;100.00;61586.06;6152813;23;20017;-80
2022/04/19 07:41:38;;;;;;;9.85;8.95;;;;;;;-144.47;100.00;61586.06;6156630;23;20013;-80
2022/04/19 07:44:04;;;;;;;10.02;9.05;;;;;;;-144.47;100.00;61586.06;6156438;23;20350;-80
2022/04/19 07:46:31;;;;;;;12.63;8.98;;;;;;;-144.47;100.00;61586.06;6182588;23;20013;-80
2022/04/19 07:48:57;;;;;;;9.40;8.50;;;;;;;-144.47;100.00;61586.06;6156413;23;20469;-80
2022/04/19 07:51:29;;;;;;;11.50;8.98;;;;;;;-144.47;100.00;61586.06;6155600;23;20468;-79
2022/04/19 07:53:55;;;;;;;13.00;8.45;;;;;;;-144.47;100.00;61586.06;6155948;23;20346;-79
2022/04/19 07:56:22;;;;;;;12.68;8.45;;;;;;;-144.47;100.00;61586.06;6156381;23;20004;-80
2022/04/19 07:58:48;;;;;;;12.93;9.32;;;;;;;-144.47;100.00;61586.06;6156631;23;20005;-79
2022/04/19 08:01:15;;;;;;;11.60;8.77;;;;;;;-144.47;100.00;61586.06;6156076;23;20009;-80
2022/04/19 08:03:40;;;;;;;12.38;9.40;;;;;;;-144.47;100.00;61586.06;6155903;23;20005;-79
2022/04/19 08:06:07;;;;;;;23.25;10.43;;;;;;;-144.47;100.00;61586.06;6155725;23;20008;-79
2022/04/19 08:08:32;;;;;;;11.15;9.07;;;;;;;-144.47;100.00;61586.06;6181760;23;20160;-79
2022/04/19 08:10:58;;;;;;;13.07;9.27;;;;;;;-144.47;100.00;61586.06;6155945;23;20009;-79
2022/04/19 08:13:24;;;;;;;13.85;9.13;;;;;;;-144.47;100.00;61586.06;6155514;23;20504;-79
2022/04/19 08:15:50;;;;;;;9.73;8.52;;;;;;;-144.47;100.00;61586.06;6155383;23;20013;-79
2022/04/19 08:18:18;;;;;;;9.52;8.50;;;;;;;-144.47;100.00;61586.06;6155225;23;20089;-80
2022/04/19 08:20:48;;;;;;;7.43;6.70;;;;;;;-144.47;100.00;61586.06;6154767;23;20012;-79
2022/04/19 08:23:14;;;;;;;11.23;8.02;;;;;;;-144.47;100.00;61586.06;6155026;23;20009;-79
2022/04/19 08:25:40;;;;;;;8.65;7.75;;;;;;;-144.47;100.00;61586.06;6181952;23;20059;-79
2022/04/19 08:28:07;;;;;;;10.32;7.40;;;;;;;-144.47;100.00;61586.06;6154878;23;20020;-80
2022/04/19 08:30:33;;;;;;;9.48;7.75;;;;;;;-144.47;100.00;61586.06;6154981;23;20020;-79
2022/04/19 08:32:59;;;;;;;8.35;7.45;;;;;;;-144.47;100.00;61586.06;6154862;23;20389;-79
2022/04/19 08:35:25;;;;;;;7.75;6.80;;;;;;;-144.47;100.00;61586.06;6180867;23;20025;-80
2022/04/19 08:37:52;;;;;;;7.03;6.38;;;;;;;-144.47;100.00;61586.06;6154807;23;20016;-78
2022/04/19 08:40:20;;;;;;;8.20;6.53;;;;;;;-144.47;100.00;61586.06;6154570;23;20029;-78
2022/04/19 08:42:49;;;;;;;;;;;;;;;-144.47;100.00;61586.06;6156013;23;20036;-79
2022/04/19 08:45:15;;;;;;;10.63;6.72;;;;;;;-144.47;100.00;61586.06;6181039;23;19919;-79
2022/04/19 08:47:45;;;;;;;10.43;7.53;;;;;;;-144.47;100.00;61586.06;6181323;23;20439;-80
2022/04/19 08:50:13;;;;;;;8.20;6.60;;;;;;;-144.47;100.00;61586.06;6181102;23;20043;-81
2022/04/19 08:52:39;;;;;;;11.38;6.20;;;;;;;-144.47;100.00;61586.06;6180754;23;20054;-78
2022/04/19 08:57:52;;;;;;;6.43;5.82;;;;;;;-144.47;100.00;61586.06;6181936;23;20015;-79
2022/04/19 09:00:22;;;;;;;7.80;5.75;;;;;;;-144.47;100.00;61586.06;6181496;23;20001;-78
2022/04/19 09:02:48;;;;;;;8.20;5.80;;;;;;;-144.47;100.00;61586.06;6181364;23;20341;-79
2022/04/19 09:05:20;;;;;;;7.28;6.53;;;;;;;-144.47;100.00;61586.06;6181516;23;20013;-80
2022/04/19 09:07:47;;;;;;;6.38;5.65;;;;;;;-144.47;100.00;61586.06;6183460;23;20020;-79
2022/04/19 09:10:15;;;;;;;9.18;6.97;;;;;;;-144.47;100.00;61586.06;6176730;23;20067;-79
2022/04/19 09:13:04;;;;;;;11.55;8.52;;;;;;;-144.47;100.00;61586.06;6198895;23;20009;-79
2022/04/19 09:15:37;;;;;;;10.25;6.75;;;;;;;-144.47;100.00;61586.06;6181016;23;20076;-79
2022/04/19 09:18:04;;;;;;;8.48;6.20;;;;;;;-144.47;100.00;61586.06;6181419;23;20048;-79
2022/04/19 09:20:31;;;;;;;8.70;7.40;;;;;;;-144.47;100.00;61586.06;6182158;23;20322;-79
2022/04/19 09:23:08;;;;;;;9.80;7.53;;;;;;;-144.47;100.00;61586.06;6181213;23;20070;-79
2022/04/19 09:25:35;;;;;;;11.35;7.47;;;;;;;-144.47;100.00;61586.06;6154887;23;20080;-80
2022/04/19 09:28:03;;;;;;;9.75;7.88;;;;;;;-144.47;100.00;61586.06;6181518;23;20009;-78
2022/04/19 09:30:34;;;;;;;9.20;8.30;;;;;;;-144.47;100.00;61586.06;6181552;23;20013;-79
2022/04/19 09:33:02;;;;;;;13.07;7.90;;;;;;;-144.47;100.00;61586.06;6154784;23;20013;-78
2022/04/19 09:35:40;;;;;;;10.43;8.45;;;;;;;-144.47;100.00;61586.06;6182894;23;20424;-79
2022/04/19 09:38:08;;;;;;;10.82;8.38;;;;;;;-144.47;100.00;61586.06;6184891;23;20020;-78
2022/04/19 09:40:39;;;;;;;12.48;8.20;;;;;;;-144.47;100.00;61586.06;6185625;23;20025;-78
2022/04/19 09:43:12;;;;;;;9.38;8.27;;;;;;;-144.47;100.00;61586.06;6187084;23;20371;-78
2022/04/19 09:45:45;;;;;;;13.77;9.20;;;;;;;-144.47;100.00;61586.06;6185089;23;20438;-78
2022/04/19 09:48:16;;;;;;;10.68;8.07;;;;;;;-144.47;100.00;61586.06;6183118;23;20013;-79
2022/04/19 09:50:47;;;;;;;;;;;;;;;-144.47;100.00;61586.06;6184272;23;20013;-79
2022/04/19 09:53:19;;;;;;;9.85;7.72;;;;;;;-144.47;100.00;61586.06;6182962;23;19916;-80
2022/04/19 09:55:49;;;;;;;11.60;8.13;;;;;;;-144.47;100.00;61586.06;6183317;23;20307;-79
2022/04/19 09:58:16;;;;;;;11.95;8.25;;;;;;;-144.47;100.00;61586.06;6182965;23;20013;-80
2022/04/19 10:00:44;;;;;;;10.15;8.20;;;;;;;-144.47;100.00;61586.06;6182957;23;20076;-79
2022/04/19 10:08:44;;;;;;;14.90;8.23;;;;;;;-144.47;100.00;61586.06;6189981;23;20373;-80
2022/04/19 10:11:09;;;;;;;12.05;9.43;;;;;;;-144.47;100.00;61586.06;6184562;23;20020;-79
2022/04/19 10:13:38;;;;;;;12.90;8.70;;;;;;;-144.47;100.00;61586.06;6182912;23;20021;-79
2022/04/19 10:16:13;;;;;;;10.45;9.23;;;;;;;-144.47;100.00;61586.06;6182528;23;20013;-79
2022/04/19 10:30:41;;;;;;;10.60;7.93;;;;;;;-144.47;100.00;61586.06;6122906;23;20069;-80
2022/04/19 10:37:08;;;;;;;10.02;8.05;;;;;;;-144.47;100.00;61586.06;6123227;23;20028;-80
2022/04/19 10:39:50;;;;;;;10.75;7.03;;;;;;;-144.47;100.00;61586.06;6122882;23;20029;-79
2022/04/19 10:42:47;;;;;;;8.15;5.38;;;;;;;-144.47;100.00;61586.06;6122801;23;20006;-79
2022/04/19 10:45:12;;;;;;;7.70;5.50;;;;;;;-144.47;100.00;61586.06;6111059;23;20024;-79
2022/04/19 10:47:53;;;;;;;7.15;5.70;;;;;;;-144.47;100.00;61586.06;6097095;23;20072;-78
2022/04/19 10:50:25;;;;;;;;;;;;;;;-144.47;100.00;61586.06;6097244;23;20018;-80
2022/04/19 10:52:51;;;;;;;10.75;7.07;;;;;;;-144.47;100.00;61586.06;6122464;23;20302;-79
2022/04/19 10:55:18;;;;;;;8.48;7.53;;;;;;;-144.47;100.00;61586.06;6122929;23;20005;-81
2022/04/19 11:00:41;;;;;;;10.45;7.40;;;;;;;-144.47;100.00;61586.06;6121460;23;20025;-80
2022/04/19 11:03:12;;;;;;;12.25;7.90;;;;;;;-144.47;100.00;61586.06;6123133;23;20037;-79
2022/04/19 11:05:46;;;;;;;15.45;7.50;;;;;;;-144.47;100.00;61586.06;6123585;23;20017;-80
2022/04/19 11:08:24;;;;;;;10.15;7.32;;;;;;;-144.47;100.00;61586.06;6123676;23;20014;-78
2022/04/19 11:10:56;;;;;;;9.90;7.47;;;;;;;-144.47;100.00;61586.06;6123861;23;20018;-79
2022/04/19 11:13:31;;;;;;;13.18;7.22;;;;;;;-144.47;100.00;61586.06;6123333;23;20016;-79
2022/04/19 11:16:06;;;;;;;7.72;6.47;;;;;;;-144.47;100.00;61586.06;6124050;23;20101;-81
2022/04/19 11:18:39;;;;;;;8.75;7.82;;;;;;;-144.47;100.00;61586.06;6144276;23;20068;-79
2022/04/19 11:21:07;;;;;;;6.90;6.15;;;;;;;-144.47;100.00;61586.06;6153108;23;20033;-79
2022/04/19 11:23:43;;;;;;;7.18;6.00;;;;;;;-144.47;100.00;61586.06;6152507;23;20013;-80
2022/04/19 11:26:41;;;;;;;11.48;7.13;;;;;;;-144.47;100.00;61586.06;6152992;23;20017;-79
2022/04/19 11:29:10;;;;;;;14.30;7.32;;;;;;;-144.47;100.00;61586.06;6120044;23;20021;-81
2022/04/19 11:31:55;;;;;;;7.72;6.40;;;;;;;-144.47;100.00;61586.06;6101088;23;20047;-78
2022/04/19 11:34:21;;;;;;;9.70;7.07;;;;;;;-144.47;100.00;61586.06;6136299;23;20429;-81
2022/04/19 11:36:46;;;;;;;8.70;6.97;;;;;;;-144.47;100.00;61586.06;6153021;23;20093;-79
2022/04/19 11:46:44;;;;;;;12.27;7.05;;;;;;;-144.47;100.00;61586.06;6153046;23;20010;-78
2022/04/19 11:47:59;;;;;;;8.65;6.22;;;;;;;-144.47;100.00;61586.06;6153008;23;20010;-80
2022/04/19 11:50:30;;;;;;;9.45;6.55;;;;;;;-144.47;100.00;61586.06;6152612;23;20021;-79
2022/04/19 11:52:57;;;;;;;10.30;6.50;;;;;;;-144.47;100.00;61586.06;6102632;23;20104;-79
2022/04/19 11:55:25;;;;;;;8.98;5.80;;;;;;;-144.47;100.00;61586.06;6152972;23;20013;-80
2022/04/19 11:58:03;;;;;;;13.85;6.13;;;;;;;-144.47;100.00;61586.06;6152941;23;20033;-80
2022/04/19 12:00:28;;;;;;;6.28;4.88;;;;;;;-144.47;100.00;61586.06;6152287;23;20041;-80
2022/04/19 12:02:54;;;;;;;8.13;5.57;;;;;;;-144.47;100.00;61586.06;6152269;23;20014;-80
2022/04/19 12:05:26;;;;;;;7.28;4.95;;;;;;;-144.47;100.00;61586.06;6152875;23;20005;-79